createdAt,value
2019-01-02T00:00:11.735Z,1011.56
2019-01-02T00:01:11.726Z,1011.59
2019-01-02T00:02:11.774Z,1011.67
2019-01-02T00:03:11.712Z,1011.67
2019-01-02T00:04:11.724Z,1011.86
2019-01-02T00:05:11.728Z,1011.83
2019-01-02T00:06:11.722Z,1011.67
2019-01-02T00:07:11.724Z,1011.73
2019-01-02T00:08:11.753Z,1011.88
2019-01-02T00:09:11.722Z,1011.88
2019-01-02T00:10:11.732Z,1011.78
2019-01-02T00:11:11.717Z,1011.78
2019-01-02T00:12:10.726Z,1011.86
2019-01-02T00:13:11.229Z,1011.87
2019-01-02T00:14:11.263Z,1011.90
2019-01-02T00:15:11.228Z,1011.84
2019-01-02T00:16:11.219Z,1011.88
2019-01-02T00:17:11.218Z,1011.89
2019-01-02T00:18:11.222Z,1011.84
2019-01-02T00:19:11.222Z,1011.95
2019-01-02T00:20:11.259Z,1012.03
2019-01-02T00:21:11.219Z,1012.07
2019-01-02T00:22:10.392Z,1012.15
2019-01-02T00:23:11.224Z,1012.13
2019-01-02T00:24:11.216Z,1012.28
2019-01-02T00:25:11.234Z,1012.51
2019-01-02T00:26:11.240Z,1012.34
2019-01-02T00:27:11.219Z,1012.24
2019-01-02T00:28:11.210Z,1012.36
2019-01-02T00:29:11.226Z,1012.18
2019-01-02T00:30:11.225Z,1012.27
2019-01-02T00:31:11.217Z,1012.16
2019-01-02T00:32:11.252Z,1012.14
2019-01-02T00:33:11.226Z,1012.20
2019-01-02T00:34:11.230Z,1012.12
2019-01-02T00:35:11.226Z,1012.13
2019-01-02T00:36:11.219Z,1012.25
2019-01-02T00:37:11.206Z,1012.26
2019-01-02T00:38:11.244Z,1012.20
2019-01-02T00:39:11.219Z,1012.22
2019-01-02T00:40:11.225Z,1012.15
2019-01-02T00:41:11.218Z,1012.25
2019-01-02T00:42:11.205Z,1012.28
2019-01-02T00:43:11.218Z,1012.23
2019-01-02T00:44:11.241Z,1012.28
2019-01-02T00:45:11.225Z,1012.24
2019-01-02T00:46:11.221Z,1012.25
2019-01-02T00:47:11.219Z,1012.27
2019-01-02T00:48:11.230Z,1012.20
2019-01-02T00:49:11.217Z,1012.27
2019-01-02T00:50:11.253Z,1012.26
2019-01-02T00:51:09.323Z,1012.20
2019-01-02T00:52:11.218Z,1012.23
2019-01-02T00:53:11.215Z,1012.23
2019-01-02T00:54:11.222Z,1012.23
2019-01-02T00:55:11.230Z,1012.27
2019-01-02T00:56:11.243Z,1012.31
2019-01-02T00:57:11.219Z,1012.37
2019-01-02T00:58:11.213Z,1012.39
2019-01-02T00:59:11.217Z,1012.41
2019-01-02T01:00:11.227Z,1012.43
2019-01-02T01:01:11.217Z,1012.39
2019-01-02T01:02:10.730Z,1012.34
2019-01-02T01:03:10.713Z,1012.45
2019-01-02T01:04:10.714Z,1012.42
2019-01-02T01:05:10.725Z,1012.32
2019-01-02T01:06:10.713Z,1012.38
2019-01-02T01:07:10.715Z,1012.39
2019-01-02T01:08:10.760Z,1012.23
2019-01-02T01:09:10.719Z,1012.35
2019-01-02T01:10:10.731Z,1012.16
2019-01-02T01:11:10.716Z,1012.24
2019-01-02T01:12:10.730Z,1012.36
2019-01-02T01:13:10.714Z,1012.41
2019-01-02T01:14:09.125Z,1012.24
2019-01-02T01:15:10.724Z,1012.21
2019-01-02T01:16:10.718Z,1012.33
2019-01-02T01:17:10.717Z,1012.48
2019-01-02T01:18:10.714Z,1012.37
2019-01-02T01:19:10.711Z,1012.39
2019-01-02T01:20:10.746Z,1012.39
2019-01-02T01:21:10.716Z,1012.43
2019-01-02T01:22:10.006Z,1012.41
2019-01-02T01:23:10.715Z,1012.36
2019-01-02T01:24:10.710Z,1012.41
2019-01-02T01:25:10.721Z,1012.48
2019-01-02T01:26:10.739Z,1012.42
2019-01-02T01:27:10.720Z,1012.47
2019-01-02T01:28:10.713Z,1012.47
2019-01-02T01:29:10.712Z,1012.38
2019-01-02T01:30:10.718Z,1012.34
2019-01-02T01:31:10.713Z,1012.35
2019-01-02T01:32:10.735Z,1012.34
2019-01-02T01:33:10.712Z,1012.38
2019-01-02T01:34:10.718Z,1012.43
2019-01-02T01:35:10.718Z,1012.47
2019-01-02T01:36:10.712Z,1012.43
2019-01-02T01:37:10.710Z,1012.50
2019-01-02T01:38:10.747Z,1012.60
2019-01-02T01:39:10.713Z,1012.53
2019-01-02T01:40:10.725Z,1012.55
2019-01-02T01:41:10.715Z,1012.66
2019-01-02T01:42:10.725Z,1012.64
2019-01-02T01:43:08.781Z,1012.60
2019-01-02T01:44:10.752Z,1012.62
2019-01-02T01:45:10.725Z,1012.55
2019-01-02T01:46:10.713Z,1012.67
2019-01-02T01:47:10.713Z,1012.70
2019-01-02T01:48:10.713Z,1012.67
2019-01-02T01:49:10.715Z,1012.59
2019-01-02T01:50:10.260Z,1012.75
2019-01-02T01:51:10.209Z,1012.60
2019-01-02T01:52:10.214Z,1012.58
2019-01-02T01:53:10.209Z,1012.70
2019-01-02T01:54:10.213Z,1012.69
2019-01-02T01:55:10.220Z,1012.70
2019-01-02T01:56:10.241Z,1012.68
2019-01-02T01:57:10.212Z,1012.67
2019-01-02T01:58:10.214Z,1012.79
2019-01-02T01:59:10.217Z,1012.69
2019-01-02T02:00:10.226Z,1012.68
2019-01-02T02:01:10.239Z,1012.73
2019-01-02T02:02:10.232Z,1012.77
2019-01-02T02:03:10.211Z,1012.63
2019-01-02T02:04:10.216Z,1012.69
2019-01-02T02:05:10.216Z,1012.79
2019-01-02T02:06:08.544Z,1012.77
2019-01-02T02:07:10.211Z,1012.93
2019-01-02T02:08:10.233Z,1012.89
2019-01-02T02:09:10.207Z,1012.79
2019-01-02T02:10:10.217Z,1012.90
2019-01-02T02:11:10.224Z,1012.96
2019-01-02T02:12:10.210Z,1012.85
2019-01-02T02:13:10.211Z,1012.88
2019-01-02T02:14:10.238Z,1012.88
2019-01-02T02:15:10.219Z,1012.79
2019-01-02T02:16:10.208Z,1012.88
2019-01-02T02:17:10.210Z,1012.94
2019-01-02T02:18:10.207Z,1012.75
2019-01-02T02:19:08.418Z,1012.85
2019-01-02T02:20:10.247Z,1012.87
2019-01-02T02:21:10.207Z,1012.74
2019-01-02T02:22:10.198Z,1012.77
2019-01-02T02:23:10.212Z,1012.77
2019-01-02T02:24:10.212Z,1012.89
2019-01-02T02:25:10.220Z,1012.79
2019-01-02T02:26:10.236Z,1012.80
2019-01-02T02:27:10.207Z,1012.87
2019-01-02T02:28:10.209Z,1012.88
2019-01-02T02:29:08.321Z,1012.91
2019-01-02T02:30:10.220Z,1012.89
2019-01-02T02:31:10.209Z,1012.91
2019-01-02T02:32:10.249Z,1012.82
2019-01-02T02:33:09.211Z,1012.80
2019-01-02T02:34:10.206Z,1012.84
2019-01-02T02:35:10.218Z,1012.72
2019-01-02T02:36:10.206Z,1012.74
2019-01-02T02:37:10.208Z,1012.83
2019-01-02T02:38:09.239Z,1012.77
2019-01-02T02:39:09.709Z,1012.81
2019-01-02T02:40:09.718Z,1012.78
2019-01-02T02:41:09.708Z,1012.88
2019-01-02T02:42:10.361Z,1013.02
2019-01-02T02:43:08.713Z,1012.89
2019-01-02T02:44:09.721Z,1012.90
2019-01-02T02:45:09.741Z,1012.94
2019-01-02T02:46:09.713Z,1012.91
2019-01-02T02:47:09.715Z,1012.90
2019-01-02T02:48:09.753Z,1012.93
2019-01-02T02:49:09.706Z,1012.92
2019-01-02T02:50:09.725Z,1013.02
2019-01-02T02:51:09.709Z,1012.89
2019-01-02T02:52:10.411Z,1013.07
2019-01-02T02:53:09.752Z,1012.93
2019-01-02T02:54:09.707Z,1012.97
2019-01-02T02:55:09.722Z,1012.93
2019-01-02T02:56:09.720Z,1012.92
2019-01-02T02:57:09.707Z,1013.03
2019-01-02T02:58:09.707Z,1013.01
2019-01-02T02:59:09.732Z,1013.02
2019-01-02T03:00:09.716Z,1013.03
2019-01-02T03:01:09.713Z,1013.08
2019-01-02T03:02:09.705Z,1013.08
2019-01-02T03:03:09.712Z,1013.03
2019-01-02T03:04:09.721Z,1013.02
2019-01-02T03:05:09.738Z,1013.06
2019-01-02T03:06:09.709Z,1013.10
2019-01-02T03:07:09.707Z,1013.00
2019-01-02T03:08:09.704Z,1013.02
2019-01-02T03:09:09.707Z,1013.03
2019-01-02T03:10:09.711Z,1013.06
2019-01-02T03:11:09.728Z,1013.00
2019-01-02T03:12:09.707Z,1013.12
2019-01-02T03:13:08.854Z,1013.12
2019-01-02T03:14:09.711Z,1013.11
2019-01-02T03:15:07.865Z,1013.16
2019-01-02T03:16:09.711Z,1013.11
2019-01-02T03:17:09.738Z,1013.04
2019-01-02T03:18:09.709Z,1013.05
2019-01-02T03:19:09.706Z,1013.01
2019-01-02T03:20:09.710Z,1013.18
2019-01-02T03:21:09.704Z,1013.06
2019-01-02T03:22:09.709Z,1013.12
2019-01-02T03:23:09.792Z,1013.30
2019-01-02T03:24:09.726Z,1013.31
2019-01-02T03:25:09.234Z,1013.12
2019-01-02T03:26:09.271Z,1013.30
2019-01-02T03:27:09.248Z,1013.33
2019-01-02T03:28:09.255Z,1013.28
2019-01-02T03:29:09.258Z,1013.41
2019-01-02T03:30:09.240Z,1013.41
2019-01-02T03:31:09.239Z,1013.40
2019-01-02T03:32:09.236Z,1013.44
2019-01-02T03:33:09.230Z,1013.55
2019-01-02T03:34:09.273Z,1013.36
2019-01-02T03:35:09.233Z,1013.37
2019-01-02T03:36:09.217Z,1013.50
2019-01-02T03:37:09.235Z,1013.42
2019-01-02T03:38:09.227Z,1013.41
2019-01-02T03:39:09.227Z,1013.36
2019-01-02T03:40:09.319Z,1013.43
2019-01-02T03:41:09.229Z,1013.44
2019-01-02T03:42:09.221Z,1013.43
2019-01-02T03:43:09.223Z,1013.44
2019-01-02T03:44:07.531Z,1013.44
2019-01-02T03:45:09.233Z,1013.52
2019-01-02T03:46:09.257Z,1013.54
2019-01-02T03:47:09.235Z,1013.59
2019-01-02T03:48:09.222Z,1013.54
2019-01-02T03:49:09.221Z,1013.53
2019-01-02T03:50:09.230Z,1013.61
2019-01-02T03:51:09.220Z,1013.59
2019-01-02T03:52:09.269Z,1013.57
2019-01-02T03:53:09.220Z,1013.68
2019-01-02T03:54:09.255Z,1013.54
2019-01-02T03:55:09.239Z,1013.60
2019-01-02T03:56:09.224Z,1013.64
2019-01-02T03:57:09.233Z,1013.59
2019-01-02T03:58:09.266Z,1013.61
2019-01-02T03:59:09.222Z,1013.57
2019-01-02T04:00:09.233Z,1013.63
2019-01-02T04:01:09.237Z,1013.66
2019-01-02T04:02:09.225Z,1013.64
2019-01-02T04:03:09.219Z,1013.66
2019-01-02T04:04:09.260Z,1013.72
2019-01-02T04:05:09.239Z,1013.64
2019-01-02T04:06:09.234Z,1013.74
2019-01-02T04:07:07.299Z,1013.71
2019-01-02T04:08:09.267Z,1013.74
2019-01-02T04:09:09.237Z,1013.76
2019-01-02T04:10:09.271Z,1013.73
2019-01-02T04:11:09.218Z,1013.74
2019-01-02T04:12:09.218Z,1013.68
2019-01-02T04:13:09.224Z,1013.69
2019-01-02T04:14:08.728Z,1013.65
2019-01-02T04:15:08.731Z,1013.61
2019-01-02T04:16:08.764Z,1013.64
2019-01-02T04:17:08.735Z,1013.68
2019-01-02T04:18:08.725Z,1013.78
2019-01-02T04:19:08.721Z,1013.65
2019-01-02T04:20:08.725Z,1013.65
2019-01-02T04:21:08.721Z,1013.67
2019-01-02T04:22:08.754Z,1013.69
2019-01-02T04:23:08.729Z,1013.74
2019-01-02T04:24:08.724Z,1013.68
2019-01-02T04:25:08.731Z,1013.72
2019-01-02T04:26:08.718Z,1013.73
2019-01-02T04:27:08.762Z,1013.64
2019-01-02T04:28:08.725Z,1013.60
2019-01-02T04:29:08.718Z,1013.66
2019-01-02T04:30:07.262Z,1013.72
2019-01-02T04:31:08.718Z,1013.76
2019-01-02T04:32:08.751Z,1013.67
2019-01-02T04:33:08.718Z,1013.76
2019-01-02T04:34:08.721Z,1013.75
2019-01-02T04:35:08.726Z,1013.76
2019-01-02T04:36:08.724Z,1013.81
2019-01-02T04:37:08.721Z,1013.78
2019-01-02T04:38:08.761Z,1013.74
2019-01-02T04:39:08.723Z,1013.71
2019-01-02T04:40:08.727Z,1013.80
2019-01-02T04:41:08.768Z,1013.74
2019-01-02T04:42:08.723Z,1013.75
2019-01-02T04:43:08.723Z,1013.74
2019-01-02T04:44:08.773Z,1013.66
2019-01-02T04:45:08.730Z,1013.67
2019-01-02T04:46:08.722Z,1013.71
2019-01-02T04:47:08.766Z,1013.68
2019-01-02T04:48:08.726Z,1013.62
2019-01-02T04:49:08.730Z,1013.72
2019-01-02T04:50:08.780Z,1013.64
2019-01-02T04:51:08.720Z,1013.65
2019-01-02T04:52:08.727Z,1013.66
2019-01-02T04:53:06.843Z,1013.85
2019-01-02T04:54:08.721Z,1013.60
2019-01-02T04:55:08.726Z,1013.65
2019-01-02T04:56:08.745Z,1013.63
2019-01-02T04:57:14.318Z,1013.66
2019-01-02T04:58:08.750Z,1013.67
2019-01-02T04:59:08.745Z,1013.68
2019-01-02T05:00:08.298Z,1013.67
2019-01-02T05:01:08.246Z,1013.74
2019-01-02T05:02:08.249Z,1013.74
2019-01-02T05:03:08.276Z,1013.79
2019-01-02T05:04:08.243Z,1013.78
2019-01-02T05:05:08.259Z,1013.75
2019-01-02T05:06:08.246Z,1013.82
2019-01-02T05:07:08.232Z,1013.88
2019-01-02T05:08:08.278Z,1013.81
2019-01-02T05:09:08.243Z,1013.89
2019-01-02T05:10:08.252Z,1013.96
2019-01-02T05:11:08.246Z,1013.86
2019-01-02T05:12:08.244Z,1013.94
2019-01-02T05:13:08.251Z,1013.91
2019-01-02T05:14:08.275Z,1013.92
2019-01-02T05:15:08.258Z,1013.86
2019-01-02T05:16:08.246Z,1013.97
2019-01-02T05:17:08.243Z,1013.92
2019-01-02T05:18:08.251Z,1013.98
2019-01-02T05:19:08.243Z,1013.95
2019-01-02T05:20:08.297Z,1014.03
2019-01-02T05:21:08.241Z,1014.02
2019-01-02T05:22:06.512Z,1014.11
2019-01-02T05:23:08.241Z,1013.99
2019-01-02T05:24:08.244Z,1014.04
2019-01-02T05:25:08.257Z,1014.07
2019-01-02T05:26:08.275Z,1014.09
2019-01-02T05:27:08.246Z,1014.03
2019-01-02T05:28:08.246Z,1014.02
2019-01-02T05:29:08.246Z,1014.25
2019-01-02T05:30:08.251Z,1014.18
2019-01-02T05:31:07.422Z,1014.10
2019-01-02T05:32:08.258Z,1014.18
2019-01-02T05:33:08.274Z,1014.10
2019-01-02T05:34:08.244Z,1014.13
2019-01-02T05:35:08.257Z,1014.15
2019-01-02T05:36:08.241Z,1014.11
2019-01-02T05:37:08.246Z,1014.10
2019-01-02T05:38:08.245Z,1014.10
2019-01-02T05:39:08.297Z,1014.11
2019-01-02T05:40:08.252Z,1014.23
2019-01-02T05:41:08.246Z,1014.15
2019-01-02T05:42:08.239Z,1014.12
2019-01-02T05:43:08.242Z,1014.16
2019-01-02T05:44:08.239Z,1014.21
2019-01-02T05:45:06.343Z,1014.34
2019-01-02T05:46:08.233Z,1014.22
2019-01-02T05:47:08.245Z,1014.31
2019-01-02T05:48:08.246Z,1014.34
2019-01-02T05:49:07.741Z,1014.29
2019-01-02T05:50:07.786Z,1014.33
2019-01-02T05:51:07.729Z,1014.23
2019-01-02T05:52:07.738Z,1014.33
2019-01-02T05:53:07.742Z,1014.32
2019-01-02T05:54:07.741Z,1014.30
2019-01-02T05:55:07.753Z,1014.26
2019-01-02T05:56:07.742Z,1014.36
2019-01-02T05:57:07.740Z,1014.25
2019-01-02T05:58:07.782Z,1014.16
2019-01-02T05:59:07.739Z,1014.29
2019-01-02T06:00:07.754Z,1014.27
2019-01-02T06:01:07.739Z,1014.33
2019-01-02T06:02:07.740Z,1014.28
2019-01-02T06:03:07.738Z,1014.27
2019-01-02T06:04:07.742Z,1014.32
2019-01-02T06:05:07.748Z,1014.31
2019-01-02T06:06:07.746Z,1014.32
2019-01-02T06:07:07.801Z,1014.32
2019-01-02T06:08:06.038Z,1014.35
2019-01-02T06:09:07.737Z,1014.43
2019-01-02T06:10:07.753Z,1014.46
2019-01-02T06:11:07.741Z,1014.36
2019-01-02T06:12:07.774Z,1014.47
2019-01-02T06:13:07.737Z,1014.43
2019-01-02T06:14:07.768Z,1014.43
2019-01-02T06:15:07.767Z,1014.42
2019-01-02T06:16:07.727Z,1014.52
2019-01-02T06:17:07.775Z,1014.48
2019-01-02T06:18:07.753Z,1014.47
2019-01-02T06:19:07.772Z,1014.41
2019-01-02T06:20:07.743Z,1014.51
2019-01-02T06:21:07.776Z,1014.58
2019-01-02T06:22:07.738Z,1014.50
2019-01-02T06:23:07.740Z,1014.46
2019-01-02T06:24:07.737Z,1014.46
2019-01-02T06:25:07.754Z,1014.50
2019-01-02T06:26:07.742Z,1014.43
2019-01-02T06:27:07.736Z,1014.51
2019-01-02T06:28:07.738Z,1014.55
2019-01-02T06:29:07.776Z,1014.46
2019-01-02T06:30:07.749Z,1014.48
2019-01-02T06:31:07.791Z,1014.53
2019-01-02T06:32:07.728Z,1014.50
2019-01-02T06:33:07.736Z,1014.54
2019-01-02T06:34:07.803Z,1014.47
2019-01-02T06:35:07.752Z,1014.43
2019-01-02T06:36:07.772Z,1014.36
2019-01-02T06:37:05.741Z,1014.33
2019-01-02T06:38:07.247Z,1014.40
2019-01-02T06:39:07.337Z,1014.43
2019-01-02T06:40:07.276Z,1014.58
2019-01-02T06:41:07.380Z,1014.60
2019-01-02T06:42:07.236Z,1014.62
2019-01-02T06:43:07.289Z,1014.65
2019-01-02T06:44:07.237Z,1014.55
2019-01-02T06:45:07.284Z,1014.68
2019-01-02T06:46:07.271Z,1014.64
2019-01-02T06:47:07.239Z,1014.67
2019-01-02T06:48:07.236Z,1014.65
2019-01-02T06:49:07.238Z,1014.70
2019-01-02T06:50:07.242Z,1014.72
2019-01-02T06:51:07.284Z,1014.74
2019-01-02T06:52:07.240Z,1014.77
2019-01-02T06:53:07.238Z,1014.86
2019-01-02T06:54:07.238Z,1014.79
2019-01-02T06:55:07.243Z,1014.79
2019-01-02T06:56:07.239Z,1014.78
2019-01-02T06:57:07.263Z,1014.76
2019-01-02T06:58:07.238Z,1014.81
2019-01-02T06:59:07.281Z,1014.83
2019-01-02T07:00:07.249Z,1014.83
2019-01-02T07:01:07.239Z,1014.95
2019-01-02T07:02:07.235Z,1014.83
2019-01-02T07:03:07.273Z,1014.97
2019-01-02T07:04:07.234Z,1015.02
2019-01-02T07:05:07.244Z,1014.92
2019-01-02T07:06:07.236Z,1015.11
2019-01-02T07:07:07.275Z,1015.12
2019-01-02T07:08:07.237Z,1015.14
2019-01-02T07:09:07.268Z,1015.06
2019-01-02T07:10:07.243Z,1015.07
2019-01-02T07:11:07.236Z,1015.11
2019-01-02T07:12:07.237Z,1015.20
2019-01-02T07:13:07.248Z,1015.10
2019-01-02T07:14:07.234Z,1015.16
2019-01-02T07:15:07.273Z,1015.14
2019-01-02T07:16:07.243Z,1015.14
2019-01-02T07:17:07.237Z,1015.31
2019-01-02T07:18:07.236Z,1015.24
2019-01-02T07:19:07.234Z,1015.26
2019-01-02T07:20:07.243Z,1015.21
2019-01-02T07:21:07.268Z,1015.27
2019-01-02T07:22:07.235Z,1015.31
2019-01-02T07:23:07.235Z,1015.41
2019-01-02T07:24:07.234Z,1015.49
2019-01-02T07:25:07.245Z,1015.49
2019-01-02T07:26:06.743Z,1015.49
2019-01-02T07:27:06.755Z,1015.44
2019-01-02T07:28:06.735Z,1015.48
2019-01-02T07:29:05.744Z,1015.57
2019-01-02T07:30:06.744Z,1015.59
2019-01-02T07:31:06.863Z,1015.59
2019-01-02T07:32:06.738Z,1015.65
2019-01-02T07:33:06.736Z,1015.69
2019-01-02T07:34:06.735Z,1015.71
2019-01-02T07:35:06.744Z,1015.69
2019-01-02T07:36:06.805Z,1015.69
2019-01-02T07:37:06.742Z,1015.80
2019-01-02T07:38:06.738Z,1015.81
2019-01-02T07:39:06.752Z,1015.88
2019-01-02T07:40:06.761Z,1015.87
2019-01-02T07:41:06.735Z,1015.88
2019-01-02T07:42:06.783Z,1015.82
2019-01-02T07:43:06.738Z,1015.96
2019-01-02T07:44:06.743Z,1016.02
2019-01-02T07:45:06.770Z,1016.01
2019-01-02T07:46:06.735Z,1015.98
2019-01-02T07:47:06.742Z,1016.00
2019-01-02T07:48:06.725Z,1016.01
2019-01-02T07:49:06.766Z,1015.98
2019-01-02T07:50:06.747Z,1016.05
2019-01-02T07:51:06.769Z,1016.00
2019-01-02T07:52:06.735Z,1015.99
2019-01-02T07:53:06.789Z,1016.03
2019-01-02T07:54:06.733Z,1016.07
2019-01-02T07:55:06.739Z,1016.07
2019-01-02T07:56:06.737Z,1016.10
2019-01-02T07:57:06.790Z,1016.05
2019-01-02T07:58:06.738Z,1016.14
2019-01-02T07:59:06.739Z,1016.15
2019-01-02T08:00:06.750Z,1016.16
2019-01-02T08:01:06.781Z,1016.23
2019-01-02T08:02:06.735Z,1016.18
2019-01-02T08:03:06.738Z,1016.11
2019-01-02T08:04:06.741Z,1016.14
2019-01-02T08:05:06.779Z,1016.14
2019-01-02T08:06:06.738Z,1016.14
2019-01-02T08:07:06.733Z,1016.21
2019-01-02T08:08:06.736Z,1016.15
2019-01-02T08:09:06.768Z,1016.19
2019-01-02T08:10:06.745Z,1016.25
2019-01-02T08:11:06.736Z,1016.22
2019-01-02T08:12:06.735Z,1016.34
2019-01-02T08:13:06.777Z,1016.37
2019-01-02T08:14:05.733Z,1016.37
2019-01-02T08:15:06.282Z,1016.37
2019-01-02T08:16:06.232Z,1016.38
2019-01-02T08:17:06.235Z,1016.32
2019-01-02T08:18:06.258Z,1016.38
2019-01-02T08:19:06.232Z,1016.40
2019-01-02T08:20:06.240Z,1016.38
2019-01-02T08:21:06.231Z,1016.51
2019-01-02T08:22:04.660Z,1016.44
2019-01-02T08:23:06.262Z,1016.47
2019-01-02T08:24:06.232Z,1016.48
2019-01-02T08:25:06.237Z,1016.52
2019-01-02T08:26:06.231Z,1016.49
2019-01-02T08:27:06.231Z,1016.54
2019-01-02T08:28:06.230Z,1016.50
2019-01-02T08:29:06.273Z,1016.53
2019-01-02T08:30:06.240Z,1016.57
2019-01-02T08:31:06.231Z,1016.59
2019-01-02T08:32:06.230Z,1016.69
2019-01-02T08:33:06.230Z,1016.65
2019-01-02T08:34:06.231Z,1016.74
2019-01-02T08:35:06.262Z,1016.71
2019-01-02T08:36:06.229Z,1016.83
2019-01-02T08:37:06.233Z,1016.77
2019-01-02T08:38:06.231Z,1016.81
2019-01-02T08:39:06.230Z,1016.89
2019-01-02T08:40:06.243Z,1016.87
2019-01-02T08:41:06.268Z,1016.89
2019-01-02T08:42:06.229Z,1016.85
2019-01-02T08:43:06.235Z,1016.82
2019-01-02T08:44:06.228Z,1016.79
2019-01-02T08:45:06.236Z,1016.86
2019-01-02T08:46:06.230Z,1016.87
2019-01-02T08:47:06.288Z,1016.80
2019-01-02T08:48:06.237Z,1016.92
2019-01-02T08:49:06.229Z,1016.92
2019-01-02T08:50:06.238Z,1016.90
2019-01-02T08:51:04.356Z,1016.99
2019-01-02T08:52:06.226Z,1016.92
2019-01-02T08:53:06.268Z,1016.97
2019-01-02T08:54:06.228Z,1016.99
2019-01-02T08:55:06.236Z,1017.04
2019-01-02T08:56:06.229Z,1016.99
2019-01-02T08:57:06.238Z,1017.04
2019-01-02T08:58:06.233Z,1017.08
2019-01-02T08:59:06.271Z,1017.04
2019-01-02T09:00:06.241Z,1017.07
2019-01-02T09:01:06.233Z,1017.01
2019-01-02T09:02:06.266Z,1017.06
2019-01-02T09:03:05.230Z,1017.08
2019-01-02T09:04:05.727Z,1017.07
2019-01-02T09:05:05.743Z,1017.12
2019-01-02T09:06:05.773Z,1017.17
2019-01-02T09:07:05.727Z,1017.14
2019-01-02T09:08:05.823Z,1017.17
2019-01-02T09:09:05.727Z,1017.14
2019-01-02T09:10:05.772Z,1017.17
2019-01-02T09:11:05.730Z,1017.16
2019-01-02T09:12:05.725Z,1017.18
2019-01-02T09:13:05.729Z,1017.22
2019-01-02T09:14:05.728Z,1017.20
2019-01-02T09:15:05.739Z,1017.28
2019-01-02T09:16:05.724Z,1017.35
2019-01-02T09:17:05.739Z,1017.33
2019-01-02T09:18:05.728Z,1017.37
2019-01-02T09:19:05.777Z,1017.33
2019-01-02T09:20:04.085Z,1017.32
2019-01-02T09:21:05.727Z,1017.36
2019-01-02T09:22:05.790Z,1017.37
2019-01-02T09:23:05.729Z,1017.46
2019-01-02T09:24:05.723Z,1017.50
2019-01-02T09:25:05.744Z,1017.43
2019-01-02T09:26:03.998Z,1017.43
2019-01-02T09:27:05.765Z,1017.45
2019-01-02T09:28:05.727Z,1017.42
2019-01-02T09:29:05.727Z,1017.49
2019-01-02T09:30:05.740Z,1017.56
2019-01-02T09:31:05.763Z,1017.59
2019-01-02T09:32:05.728Z,1017.58
2019-01-02T09:33:05.730Z,1017.58
2019-01-02T09:34:05.730Z,1017.59
2019-01-02T09:35:05.732Z,1017.59
2019-01-02T09:36:05.764Z,1017.66
2019-01-02T09:37:05.727Z,1017.59
2019-01-02T09:38:05.725Z,1017.60
2019-01-02T09:39:05.733Z,1017.74
2019-01-02T09:40:05.737Z,1017.66
2019-01-02T09:41:05.757Z,1017.66
2019-01-02T09:42:05.731Z,1017.74
2019-01-02T09:43:05.729Z,1017.78
2019-01-02T09:44:05.727Z,1017.73
2019-01-02T09:45:05.738Z,1017.73
2019-01-02T09:46:05.724Z,1017.73
2019-01-02T09:47:05.725Z,1017.65
2019-01-02T09:48:05.753Z,1017.68
2019-01-02T09:49:03.762Z,1017.76
2019-01-02T09:50:05.847Z,1017.83
2019-01-02T09:51:05.722Z,1017.81
2019-01-02T09:52:05.226Z,1017.81
2019-01-02T09:53:05.227Z,1017.80
2019-01-02T09:54:05.223Z,1017.79
2019-01-02T09:55:05.238Z,1017.87
2019-01-02T09:56:05.257Z,1017.83
2019-01-02T09:57:05.223Z,1017.87
2019-01-02T09:58:05.224Z,1017.88
2019-01-02T09:59:05.358Z,1017.84
2019-01-02T10:00:05.232Z,1017.89
2019-01-02T10:01:05.223Z,1017.84
2019-01-02T10:02:05.255Z,1017.89
2019-01-02T10:03:05.225Z,1017.76
2019-01-02T10:04:05.228Z,1017.90
2019-01-02T10:05:05.232Z,1017.87
2019-01-02T10:06:05.235Z,1017.87
2019-01-02T10:07:05.223Z,1017.97
2019-01-02T10:08:05.253Z,1017.83
2019-01-02T10:09:05.229Z,1017.88
2019-01-02T10:10:05.234Z,1017.91
2019-01-02T10:11:05.224Z,1017.88
2019-01-02T10:12:05.221Z,1017.87
2019-01-02T10:13:05.229Z,1017.86
2019-01-02T10:14:05.259Z,1017.85
2019-01-02T10:15:05.252Z,1017.89
2019-01-02T10:16:05.237Z,1017.89
2019-01-02T10:17:05.246Z,1017.95
2019-01-02T10:18:03.464Z,1017.98
2019-01-02T10:19:35.342Z,1017.88
2019-01-02T10:20:43.718Z,1017.99
2019-01-02T10:21:38.096Z,1017.97
2019-01-02T10:22:37.097Z,1017.97
2019-01-02T10:23:37.115Z,1018.00
2019-01-02T10:24:37.102Z,1018.04
2019-01-02T10:25:37.090Z,1018.01
2019-01-02T10:26:37.103Z,1017.85
2019-01-02T10:27:37.092Z,1017.96
2019-01-02T10:28:37.139Z,1018.01
2019-01-02T10:29:37.100Z,1018.02
2019-01-02T10:30:37.097Z,1017.99
2019-01-02T10:31:37.093Z,1017.93
2019-01-02T10:32:37.103Z,1018.02
2019-01-02T10:33:37.091Z,1018.01
2019-01-02T10:34:37.113Z,1018.00
2019-01-02T10:35:37.115Z,1018.10
2019-01-02T10:36:37.090Z,1018.05
2019-01-02T10:37:37.089Z,1018.01
2019-01-02T10:38:37.090Z,1017.82
2019-01-02T10:39:37.099Z,1018.15
2019-01-02T10:40:37.113Z,1018.10
2019-01-02T10:41:35.082Z,1018.07
2019-01-02T10:42:36.589Z,1017.83
2019-01-02T10:43:36.593Z,1018.06
2019-01-02T10:44:36.616Z,1018.12
2019-01-02T10:45:36.622Z,1017.87
2019-01-02T10:46:36.663Z,1018.06
2019-01-02T10:47:36.596Z,1018.03
2019-01-02T10:48:36.594Z,1017.99
2019-01-02T10:49:36.598Z,1018.10
2019-01-02T10:50:36.614Z,1018.07
2019-01-02T10:51:36.598Z,1018.06
2019-01-02T10:52:36.611Z,1017.96
2019-01-02T10:53:36.604Z,1018.05
2019-01-02T10:54:36.603Z,1018.03
2019-01-02T10:55:36.597Z,1017.94
2019-01-02T10:56:36.607Z,1018.13
2019-01-02T10:57:36.590Z,1018.17
2019-01-02T10:58:36.741Z,1018.19
2019-01-02T10:59:36.598Z,1018.03
2019-01-02T11:00:36.602Z,1017.96
2019-01-02T11:01:36.604Z,1018.03
2019-01-02T11:02:36.614Z,1018.12
2019-01-02T11:03:36.593Z,1018.11
2019-01-02T11:04:34.890Z,1018.18
2019-01-02T11:05:36.633Z,1018.18
2019-01-02T11:06:36.587Z,1018.06
2019-01-02T11:07:36.591Z,1018.36
2019-01-02T11:08:36.604Z,1018.25
2019-01-02T11:09:36.593Z,1018.06
2019-01-02T11:10:34.822Z,1018.14
2019-01-02T11:11:36.589Z,1018.13
2019-01-02T11:12:36.589Z,1018.15
2019-01-02T11:13:36.590Z,1017.98
2019-01-02T11:14:36.599Z,1017.99
2019-01-02T11:15:36.592Z,1018.10
2019-01-02T11:16:34.753Z,1018.05
2019-01-02T11:17:36.599Z,1017.86
2019-01-02T11:18:36.593Z,1018.20
2019-01-02T11:19:36.590Z,1018.16
2019-01-02T11:20:36.602Z,1017.95
2019-01-02T11:21:36.594Z,1018.10
2019-01-02T11:22:36.626Z,1017.77
2019-01-02T11:23:36.596Z,1017.97
2019-01-02T11:24:36.588Z,1018.08
2019-01-02T11:25:36.590Z,1017.88
2019-01-02T11:26:36.601Z,1017.97
2019-01-02T11:27:36.587Z,1018.19
2019-01-02T11:28:36.617Z,1018.19
2019-01-02T11:29:35.589Z,1018.12
2019-01-02T11:30:36.099Z,1018.35
2019-01-02T11:31:36.086Z,1018.46
2019-01-02T11:32:36.098Z,1018.33
2019-01-02T11:33:36.089Z,1018.14
2019-01-02T11:34:34.554Z,1018.24
2019-01-02T11:35:36.091Z,1018.31
2019-01-02T11:36:36.085Z,1018.40
2019-01-02T11:37:36.087Z,1018.28
2019-01-02T11:38:36.098Z,1018.28
2019-01-02T11:39:36.088Z,1018.42
2019-01-02T11:40:36.109Z,1018.42
2019-01-02T11:41:36.087Z,1018.48
2019-01-02T11:42:36.771Z,1018.43
2019-01-02T11:43:36.087Z,1018.31
2019-01-02T11:44:36.099Z,1018.37
2019-01-02T11:45:36.122Z,1018.45
2019-01-02T11:46:36.089Z,1018.36
2019-01-02T11:47:36.156Z,1018.51
2019-01-02T11:48:36.114Z,1018.38
2019-01-02T11:49:36.261Z,1018.43
2019-01-02T11:50:36.108Z,1018.30
2019-01-02T11:51:36.106Z,1018.25
2019-01-02T11:52:36.143Z,1018.43
2019-01-02T11:53:36.110Z,1018.42
2019-01-02T11:54:36.396Z,1018.39
2019-01-02T11:55:36.086Z,1018.44
2019-01-02T11:56:36.147Z,1018.53
2019-01-02T11:57:36.084Z,1018.31
2019-01-02T11:58:36.087Z,1018.21
2019-01-02T11:59:36.098Z,1018.23
2019-01-02T12:00:36.115Z,1018.39
2019-01-02T12:01:36.087Z,1018.17
2019-01-02T12:02:36.084Z,1018.32
2019-01-02T12:03:36.107Z,1018.62
2019-01-02T12:04:36.096Z,1018.42
2019-01-02T12:05:36.085Z,1018.51